Time;durP1;ratioP1;P1;durP2;ratioP2;P2;SDS_P1;SDS_P2;PMS_P1;PMS_P2;Temp;Humidity;BMP_temperature;BMP_pressure;BME280_temperature;BME280_humidity;BME280_pressure;Samples;Min_cycle;Max_cycle;Signal;HPM_P1;HPM_P2
2023/07/07 00:01:07;;;;;;;12.70;6.10;;;;;;;14.18;100.00;97331.63;110095;1245;58951;-64
2023/07/07 00:03:46;;;;;;;12.20;6.40;;;;;;;14.19;100.00;97327.30;110039;1245;58803;-64
2023/07/07 00:06:21;;;;;;;12.70;7.00;;;;;;;14.22;100.00;97330.41;110060;1245;70743;-66
2023/07/07 00:08:52;;;;;;;10.90;6.60;;;;;;;14.22;100.00;97327.95;110067;1244;68398;-66
2023/07/07 00:11:22;;;;;;;8.30;5.50;;;;;;;14.22;100.00;97331.46;110075;1245;69135;-64
2023/07/07 00:13:54;;;;;;;23.80;7.80;;;;;;;14.23;100.00;97332.41;110103;1245;58967;-64
2023/07/07 00:16:27;;;;;;;11.40;5.40;;;;;;;14.22;100.00;97334.72;110085;1245;58894;-66
2023/07/07 00:18:59;;;;;;;13.00;5.50;;;;;;;14.21;100.00;97336.77;110081;1245;70418;-66
2023/07/07 00:21:29;;;;;;;17.60;5.90;;;;;;;14.20;100.00;97335.42;110113;1244;68768;-64
2023/07/07 00:23:59;;;;;;;8.70;5.40;;;;;;;14.21;100.00;97333.65;110086;1245;69950;-66
2023/07/07 00:26:31;;;;;;;;;;;;;;;14.20;100.00;97332.27;110094;1245;58925;-66
2023/07/07 00:29:03;;;;;;;19.80;5.40;;;;;;;14.20;100.00;97330.59;110127;1245;59050;-65
2023/07/07 00:31:34;;;;;;;9.90;5.30;;;;;;;14.20;100.00;97327.09;110107;1244;69830;-64
2023/07/07 00:34:04;;;;;;;14.00;4.60;;;;;;;14.20;100.00;97326.38;110090;1245;69839;-65
2023/07/07 00:36:34;;;;;;;9.40;5.10;;;;;;;14.20;100.00;97330.03;110057;1243;68471;-65
2023/07/07 00:39:04;;;;;;;12.00;5.30;;;;;;;14.18;100.00;97330.35;110093;1244;58884;-65
2023/07/07 00:41:36;;;;;;;10.40;4.90;;;;;;;14.15;100.00;97330.88;110062;1246;58874;-65
2023/07/07 00:44:10;;;;;;;13.60;5.40;;;;;;;14.14;100.00;97329.49;110088;1244;69623;-65
2023/07/07 00:46:40;;;;;;;14.40;4.90;;;;;;;14.13;100.00;97327.34;110102;1246;69642;-65
2023/07/07 00:49:17;;;;;;;10.40;6.00;;;;;;;14.10;100.00;97328.48;110150;1244;70507;-65
2023/07/07 00:51:59;;;;;;;7.30;4.60;;;;;;;14.08;100.00;97330.26;110112;1245;58948;-64
2023/07/07 00:54:33;;;;;;;7.20;4.50;;;;;;;14.07;100.00;97324.52;110172;1244;58895;-64
2023/07/07 00:57:05;;;;;;;6.40;4.20;;;;;;;14.09;100.00;97320.54;110109;1245;69870;-65
2023/07/07 00:59:42;;;;;;;6.50;4.40;;;;;;;14.09;100.00;97318.38;110132;1244;69279;-65
2023/07/07 01:02:24;;;;;;;7.30;4.80;;;;;;;14.09;100.00;97313.13;109816;1248;68502;-65
2023/07/07 01:05:01;;;;;;;8.90;4.30;;;;;;;14.09;100.00;97312.27;110062;1244;58868;-65
2023/07/07 01:07:40;;;;;;;7.50;4.50;;;;;;;14.08;100.00;97309.94;110112;1243;58889;-65
2023/07/07 01:10:10;;;;;;;14.10;5.70;;;;;;;14.06;100.00;97312.72;110069;1244;69846;-65
2023/07/07 01:12:42;;;;;;;33.00;5.60;;;;;;;14.05;100.00;97310.73;110073;1245;69125;-65
2023/07/07 01:15:13;;;;;;;12.80;4.90;;;;;;;14.04;100.00;97309.71;110097;1247;68788;-65
2023/07/07 01:18:14;;;;;;;7.70;4.80;;;;;;;14.06;100.00;97305.58;110093;1244;58886;-64
2023/07/07 01:21:04;;;;;;;9.00;5.10;;;;;;;14.06;100.00;97302.04;110119;1244;58938;-64
2023/07/07 01:23:57;;;;;;;7.00;4.60;;;;;;;14.07;100.00;97303.00;110091;1245;69871;-65
2023/07/07 01:26:44;;;;;;;11.00;5.00;;;;;;;14.09;100.00;97304.27;110073;1244;69130;-65
2023/07/07 01:29:56;;;;;;;10.20;5.30;;;;;;;14.06;100.00;97308.67;110095;1244;69098;-65
2023/07/07 01:32:30;;;;;;;9.40;4.10;;;;;;;14.05;100.00;97306.66;109720;1244;58914;-64
2023/07/07 01:35:11;;;;;;;13.90;6.00;;;;;;;14.06;100.00;97309.52;109283;1245;58956;-64
2023/07/07 01:37:56;;;;;;;14.20;4.50;;;;;;;14.10;100.00;97318.36;110043;1244;69835;-64
2023/07/07 01:40:50;;;;;;;15.40;4.50;;;;;;;14.11;100.00;97321.58;110077;1242;68560;-64
2023/07/07 01:43:36;;;;;;;8.60;4.50;;;;;;;14.14;100.00;97324.31;110086;1244;68787;-64
2023/07/07 01:46:21;;;;;;;12.30;4.40;;;;;;;14.17;100.00;97330.83;109968;1246;58938;-66
2023/07/07 01:49:09;;;;;;;10.10;4.70;;;;;;;14.22;100.00;97337.58;110090;1244;58881;-64
2023/07/07 01:52:01;;;;;;;10.60;4.70;;;;;;;14.26;100.00;97340.35;110065;1244;69810;-64
2023/07/07 01:54:36;;;;;;;23.90;6.50;;;;;;;14.27;100.00;97342.58;109797;1245;69716;-64
2023/07/07 01:57:13;;;;;;;9.60;4.20;;;;;;;14.25;100.00;97341.14;109732;1244;68375;-64
2023/07/07 01:59:45;;;;;;;13.30;4.70;;;;;;;14.24;100.00;97340.52;109757;1246;58948;-66
2023/07/07 02:02:15;;;;;;;12.50;4.60;;;;;;;14.22;100.00;97336.14;109889;1246;58930;-67
2023/07/07 02:04:46;;;;;;;13.50;4.60;;;;;;;14.22;100.00;97326.89;109768;1246;69780;-64
2023/07/07 02:07:19;;;;;;;18.60;3.80;;;;;;;14.23;100.00;97325.70;110093;1242;69706;-64
2023/07/07 02:09:50;;;;;;;15.90;4.80;;;;;;;14.25;100.00;97323.28;110067;1244;68497;-64
2023/07/07 02:12:21;;;;;;;13.10;4.80;;;;;;;14.26;100.00;97324.35;109970;1244;58871;-66
2023/07/07 02:14:53;;;;;;;4.60;2.70;;;;;;;14.28;100.00;97331.08;110057;1245;58946;-64
2023/07/07 02:17:24;;;;;;;26.80;5.80;;;;;;;14.30;100.00;97331.48;109926;1245;69851;-64
2023/07/07 02:19:59;;;;;;;49.80;6.50;;;;;;;14.27;100.00;97329.72;109929;1243;68623;-64
2023/07/07 02:22:30;;;;;;;33.90;5.90;;;;;;;14.25;100.00;97327.85;110095;1244;68532;-64
2023/07/07 02:25:01;;;;;;;14.80;5.20;;;;;;;14.22;100.00;97326.15;110096;1245;58906;-64
2023/07/07 02:27:35;;;;;;;11.60;5.00;;;;;;;14.22;100.00;97322.70;110164;1244;58882;-66
2023/07/07 02:30:05;;;;;;;;;;;;;;;14.24;100.00;97324.42;110145;1244;71320;-64
2023/07/07 02:32:37;;;;;;;20.10;5.60;;;;;;;14.24;100.00;97323.74;109991;1245;69620;-63
2023/07/07 02:35:10;;;;;;;15.30;4.30;;;;;;;14.24;100.00;97322.34;109776;1246;69289;-64
2023/07/07 02:37:42;;;;;;;25.00;5.50;;;;;;;14.25;100.00;97325.22;109776;1246;58950;-65
2023/07/07 02:40:15;;;;;;;56.40;8.60;;;;;;;14.24;100.00;97327.35;110045;1251;58880;-65
2023/07/07 02:42:47;;;;;;;105.90;10.60;;;;;;;14.22;100.00;97327.17;110090;1244;70442;-65
2023/07/07 02:45:17;;;;;;;88.00;9.70;;;;;;;14.19;100.00;97325.59;110099;1245;69629;-64
2023/07/07 02:47:51;;;;;;;45.10;8.10;;;;;;;14.18;100.00;97325.14;109850;1245;69097;-64
2023/07/07 02:50:21;;;;;;;21.50;6.10;;;;;;;14.15;100.00;97330.30;110143;1244;58902;-66
2023/07/07 02:52:52;;;;;;;76.00;9.00;;;;;;;14.15;100.00;97330.99;109910;1245;58909;-66
2023/07/07 02:55:22;;;;;;;160.10;13.00;;;;;;;14.18;100.00;97331.78;110115;1245;70587;-66
2023/07/07 02:57:52;;;;;;;36.50;7.30;;;;;;;14.19;100.00;97335.93;110036;1246;67893;-64
2023/07/07 03:00:25;;;;;;;39.30;8.00;;;;;;;14.21;100.00;97338.85;109966;1245;69364;-64
2023/07/07 03:02:55;;;;;;;22.80;6.40;;;;;;;14.23;100.00;97344.48;109776;1245;59257;-66
2023/07/07 03:05:26;;;;;;;21.00;6.60;;;;;;;14.26;100.00;97348.44;110114;1244;58879;-66
2023/07/07 03:08:00;;;;;;;8.80;5.50;;;;;;;14.29;100.00;97351.48;109848;1246;69770;-64
2023/07/07 03:10:35;;;;;;;8.80;4.50;;;;;;;14.34;100.00;97355.32;110014;1245;69084;-64
2023/07/07 03:13:06;;;;;;;14.30;5.10;;;;;;;14.36;100.00;97355.61;109959;1246;69205;-64
2023/07/07 03:15:40;;;;;;;10.10;5.20;;;;;;;14.39;100.00;97359.70;110130;1245;58896;-65
2023/07/07 03:18:23;;;;;;;8.00;5.80;;;;;;;14.45;100.00;97363.88;110034;1244;58928;-66
2023/07/07 03:20:57;;;;;;;9.40;6.40;;;;;;;14.47;100.00;97363.40;110126;1244;71195;-65
2023/07/07 03:23:27;;;;;;;10.10;5.60;;;;;;;14.46;100.00;97366.42;110106;1244;69143;-65
2023/07/07 03:26:09;;;;;;;10.90;5.80;;;;;;;14.47;100.00;97363.61;109961;1247;69147;-63
2023/07/07 03:28:40;;;;;;;12.60;5.70;;;;;;;14.50;100.00;97363.89;109790;1245;59078;-66
2023/07/07 03:31:16;;;;;;;11.20;5.30;;;;;;;14.54;100.00;97358.25;110097;1244;58931;-64
2023/07/07 03:33:46;;;;;;;10.50;6.60;;;;;;;14.60;100.00;97356.84;110100;1243;71537;-65
2023/07/07 03:36:18;;;;;;;;;;;;;;;14.67;100.00;97356.90;110095;1245;69212;-65
2023/07/07 03:38:49;;;;;;;10.20;7.40;;;;;;;14.74;100.00;97352.94;109983;1244;68326;-65
2023/07/07 03:41:21;;;;;;;10.60;7.20;;;;;;;14.84;100.00;97353.12;110070;1248;59311;-63
2023/07/07 03:43:53;;;;;;;11.60;7.20;;;;;;;14.95;100.00;97352.57;110108;1245;58954;-64
2023/07/07 03:46:25;;;;;;;9.00;6.40;;;;;;;15.08;100.00;97353.73;110123;1245;70508;-64
2023/07/07 03:48:56;;;;;;;9.60;6.30;;;;;;;15.18;100.00;97351.55;109840;1244;68481;-64
2023/07/07 03:51:34;;;;;;;9.00;5.90;;;;;;;15.26;100.00;97356.06;110045;1245;70076;-65
2023/07/07 03:54:07;;;;;;;9.40;5.30;;;;;;;15.32;100.00;97361.29;110033;1245;58960;-64
2023/07/07 03:56:38;;;;;;;9.60;6.80;;;;;;;15.32;100.00;97365.70;110116;1244;58880;-64
2023/07/07 03:59:07;;;;;;;7.40;5.30;;;;;;;15.32;100.00;97368.52;109994;1243;70416;-64
2023/07/07 04:01:38;;;;;;;7.90;5.20;;;;;;;15.38;100.00;97365.70;110151;1244;69520;-66
2023/07/07 04:04:07;;;;;;;7.60;5.10;;;;;;;15.47;100.00;97365.02;110141;1244;69860;-66
2023/07/07 04:06:37;;;;;;;8.30;5.50;;;;;;;15.55;100.00;97363.75;110113;1245;58926;-64
2023/07/07 04:09:06;;;;;;;7.20;5.00;;;;;;;15.60;100.00;97366.03;110171;1243;58888;-65
2023/07/07 04:11:36;;;;;;;;;;;;;;;15.65;100.00;97365.77;109928;1244;69805;-64
2023/07/07 04:14:06;;;;;;;6.90;4.80;;;;;;;15.70;100.00;97370.64;110202;1245;69841;-64
2023/07/07 04:16:36;;;;;;;5.80;4.80;;;;;;;15.76;100.00;97373.88;110185;1243;69257;-64
2023/07/07 04:19:05;;;;;;;6.50;5.30;;;;;;;15.86;100.00;97379.27;110067;1246;58947;-65
2023/07/07 04:21:35;;;;;;;6.60;5.30;;;;;;;15.92;100.00;97382.42;110140;1244;58937;-65
2023/07/07 04:24:06;;;;;;;5.60;4.70;;;;;;;15.99;100.00;97382.23;110078;1244;69606;-64
2023/07/07 04:26:38;;;;;;;5.70;4.80;;;;;;;16.12;100.00;97383.33;109867;1243;69553;-66
2023/07/07 04:29:08;;;;;;;5.40;4.30;;;;;;;16.21;100.00;97380.30;110135;1244;68644;-66
2023/07/07 04:31:38;;;;;;;6.30;4.80;;;;;;;16.29;100.00;97383.36;110149;1244;58909;-65
2023/07/07 04:34:07;;;;;;;6.30;4.40;;;;;;;16.31;100.00;97387.14;110128;1244;58822;-66
2023/07/07 04:36:37;;;;;;;5.00;3.80;;;;;;;16.43;100.00;97389.80;110145;1245;71040;-66
2023/07/07 04:39:07;;;;;;;4.80;3.80;;;;;;;16.51;100.00;97394.77;110115;1244;68110;-63
2023/07/07 04:41:36;;;;;;;5.00;4.10;;;;;;;16.54;100.00;97390.51;110116;1244;68354;-64
2023/07/07 04:44:06;;;;;;;5.90;4.40;;;;;;;16.56;100.00;97386.26;110052;1243;58946;-64
2023/07/07 04:46:38;;;;;;;5.40;4.00;;;;;;;16.61;100.00;97387.02;110110;1244;58875;-64
2023/07/07 04:49:08;;;;;;;6.00;4.00;;;;;;;16.67;100.00;97386.45;110103;1244;70788;-65
2023/07/07 04:51:40;;;;;;;6.20;4.10;;;;;;;16.71;100.00;97383.69;110114;1244;70554;-65
2023/07/07 04:54:14;;;;;;;5.70;4.00;;;;;;;16.79;100.00;97382.94;110046;1243;68204;-64
2023/07/07 04:56:44;;;;;;;5.50;4.00;;;;;;;16.87;100.00;97379.08;110094;1244;58939;-63
2023/07/07 04:59:16;;;;;;;4.70;3.40;;;;;;;17.00;100.00;97384.97;110114;1244;58889;-64
2023/07/07 05:01:46;;;;;;;5.50;3.80;;;;;;;17.13;100.00;97390.85;110106;1244;69752;-64
2023/07/07 05:04:15;;;;;;;6.90;3.90;;;;;;;17.26;100.00;97392.52;110077;1243;68374;-64
2023/07/07 05:06:45;;;;;;;6.80;4.60;;;;;;;17.41;100.00;97398.23;110068;1244;68281;-65
2023/07/07 05:09:16;;;;;;;6.30;4.50;;;;;;;17.52;100.00;97405.00;110039;1244;58908;-65
2023/07/07 05:11:44;;;;;;;6.70;4.30;;;;;;;17.66;100.00;97398.91;110083;1244;58884;-66
2023/07/07 05:14:13;;;;;;;5.90;4.20;;;;;;;17.78;100.00;97400.02;110078;1244;70498;-65
2023/07/07 05:16:43;;;;;;;7.10;5.70;;;;;;;17.75;100.00;97400.76;110073;1244;68790;-64
2023/07/07 05:19:12;;;;;;;5.30;4.40;;;;;;;17.66;100.00;97401.07;110054;1243;69301;-64
2023/07/07 05:21:41;;;;;;;5.80;4.60;;;;;;;17.74;100.00;97403.02;110114;1243;59010;-64
2023/07/07 05:24:11;;;;;;;6.60;4.40;;;;;;;17.92;100.00;97404.59;110104;1244;58868;-67
2023/07/07 05:26:40;;;;;;;7.90;5.00;;;;;;;18.09;100.00;97408.95;110096;1243;70536;-65
2023/07/07 05:29:13;;;;;;;5.90;4.40;;;;;;;18.22;100.00;97408.09;110082;1244;69620;-64
2023/07/07 05:31:43;;;;;;;6.40;4.80;;;;;;;18.38;100.00;97407.59;110046;1247;68498;-64
2023/07/07 05:34:13;;;;;;;6.30;4.50;;;;;;;18.38;100.00;97405.03;110109;1242;58936;-64
2023/07/07 05:36:42;;;;;;;5.40;4.30;;;;;;;18.44;100.00;97407.04;110095;1244;58950;-64
2023/07/07 05:39:11;;;;;;;6.80;4.90;;;;;;;18.50;100.00;97404.71;110092;1244;70602;-63
2023/07/07 05:41:41;;;;;;;5.10;4.10;;;;;;;18.61;100.00;97397.66;110117;1245;69847;-66
2023/07/07 05:44:10;;;;;;;7.00;4.70;;;;;;;18.59;100.00;97401.55;110139;1244;69847;-65
2023/07/07 05:46:39;;;;;;;7.00;5.40;;;;;;;18.68;100.00;97400.70;110140;1243;58936;-65
2023/07/07 05:49:09;;;;;;;7.00;5.10;;;;;;;18.54;100.00;97405.52;110108;1245;58895;-65
2023/07/07 05:51:39;;;;;;;6.70;4.70;;;;;;;18.55;100.00;97406.91;110082;1244;71173;-64
2023/07/07 05:54:09;;;;;;;5.60;4.20;;;;;;;18.49;100.00;97405.99;110082;1244;69245;-64
2023/07/07 05:56:38;;;;;;;6.40;4.60;;;;;;;18.55;100.00;97402.76;110088;1244;69259;-65
2023/07/07 05:59:07;;;;;;;6.30;4.60;;;;;;;18.75;100.00;97407.34;110090;1244;58922;-64
2023/07/07 06:01:37;;;;;;;4.70;3.90;;;;;;;19.07;100.00;97410.79;110060;1244;58869;-64
2023/07/07 06:04:07;;;;;;;6.20;4.80;;;;;;;19.46;100.00;97406.80;110131;1243;71190;-64
2023/07/07 06:06:36;;;;;;;7.10;5.10;;;;;;;19.68;100.00;97407.48;110092;1244;68151;-64
2023/07/07 06:09:06;;;;;;;6.80;5.50;;;;;;;19.84;100.00;97403.69;110082;1244;69717;-62
2023/07/07 06:11:35;;;;;;;7.20;4.80;;;;;;;19.81;100.00;97404.89;110086;1244;58880;-63
2023/07/07 06:14:04;;;;;;;5.90;5.30;;;;;;;19.65;100.00;97404.96;110070;1244;58897;-63
2023/07/07 06:16:33;;;;;;;6.30;5.00;;;;;;;19.43;100.00;97403.63;110102;1244;71650;-64
2023/07/07 06:19:03;;;;;;;6.00;4.30;;;;;;;19.37;100.00;97400.32;110090;1244;69851;-61
2023/07/07 06:21:32;;;;;;;7.20;5.70;;;;;;;19.47;100.00;97399.55;110078;1244;69877;-62
2023/07/07 06:24:02;;;;;;;7.20;6.30;;;;;;;19.56;100.00;97404.42;109964;1245;58911;-65
2023/07/07 06:26:31;;;;;;;;;;;;;;;19.71;100.00;97403.29;110124;1244;58840;-64
2023/07/07 06:29:00;;;;;;;6.60;5.40;;;;;;;19.89;100.00;97399.99;110097;1244;70858;-65
2023/07/07 06:31:29;;;;;;;6.30;4.50;;;;;;;19.99;100.00;97401.85;110096;1244;69818;-64
2023/07/07 06:33:59;;;;;;;6.50;4.60;;;;;;;20.14;100.00;97398.25;110110;1243;68701;-65
2023/07/07 06:36:28;;;;;;;5.50;4.30;;;;;;;20.33;100.00;97402.08;110137;1244;58979;-66
2023/07/07 06:38:57;;;;;;;6.40;5.20;;;;;;;20.39;100.00;97404.23;110137;1244;58869;-65
2023/07/07 06:41:27;;;;;;;6.80;5.10;;;;;;;20.46;99.73;97406.48;110162;1244;70553;-64
2023/07/07 06:43:56;;;;;;;6.30;4.90;;;;;;;20.47;100.00;97407.61;110089;1244;68849;-65
2023/07/07 06:46:26;;;;;;;6.70;5.20;;;;;;;20.64;99.86;97408.73;110147;1243;69128;-66
2023/07/07 06:48:56;;;;;;;5.10;4.50;;;;;;;20.91;99.72;97409.81;110123;1244;58881;-65
2023/07/07 06:51:25;;;;;;;5.60;4.70;;;;;;;21.01;97.51;97415.95;110183;1244;59020;-65
2023/07/07 06:53:54;;;;;;;7.10;5.70;;;;;;;20.69;97.54;97421.41;110133;1244;71156;-66
2023/07/07 06:56:23;;;;;;;6.20;5.20;;;;;;;20.75;97.99;97426.52;110091;1244;69640;-67
2023/07/07 06:58:53;;;;;;;8.70;6.60;;;;;;;20.98;96.89;97424.95;110076;1244;69274;-66
2023/07/07 07:01:22;;;;;;;5.60;4.90;;;;;;;21.12;95.51;97425.98;110098;1244;58905;-66
2023/07/07 07:03:51;;;;;;;7.10;6.10;;;;;;;21.20;95.01;97427.67;110094;1243;58898;-66
2023/07/07 07:06:20;;;;;;;5.40;4.20;;;;;;;21.18;93.43;97428.73;110105;1244;70979;-66
2023/07/07 07:08:49;;;;;;;6.00;5.40;;;;;;;21.34;93.94;97427.35;110165;1244;69348;-65
2023/07/07 07:11:18;;;;;;;6.80;5.70;;;;;;;21.53;93.58;97426.91;110154;1244;68830;-65
2023/07/07 07:13:48;;;;;;;6.40;5.60;;;;;;;21.66;91.79;97429.19;110178;1244;58887;-66
2023/07/07 07:16:17;;;;;;;11.70;7.90;;;;;;;21.47;91.48;97426.02;110186;1242;59263;-64
2023/07/07 07:18:46;;;;;;;9.20;6.70;;;;;;;21.46;91.50;97423.87;110107;1244;71144;-64
2023/07/07 07:21:15;;;;;;;9.40;7.30;;;;;;;21.37;91.92;97425.52;110108;1243;69604;-64
2023/07/07 07:23:44;;;;;;;6.80;5.70;;;;;;;21.48;92.67;97424.69;110094;1244;69934;-65
2023/07/07 07:26:13;;;;;;;9.20;7.40;;;;;;;21.53;90.49;97427.14;110134;1244;58957;-64
2023/07/07 07:28:42;;;;;;;10.50;8.00;;;;;;;21.26;93.08;97430.21;110148;1244;58916;-65
2023/07/07 07:31:12;;;;;;;7.80;6.50;;;;;;;21.42;92.35;97428.02;110156;1244;69993;-66
2023/07/07 07:33:41;;;;;;;7.60;6.10;;;;;;;21.51;91.08;97426.42;110080;1244;68687;-63
2023/07/07 07:36:10;;;;;;;6.90;5.90;;;;;;;21.86;89.48;97420.90;110095;1243;69011;-65
2023/07/07 07:38:39;;;;;;;7.30;6.20;;;;;;;22.11;87.02;97416.73;110148;1242;58955;-66
2023/07/07 07:41:08;;;;;;;8.70;7.70;;;;;;;22.21;85.83;97414.73;110122;1244;58875;-66
2023/07/07 07:43:37;;;;;;;8.30;6.90;;;;;;;22.25;85.73;97414.23;110130;1243;70553;-67
2023/07/07 07:46:06;;;;;;;8.00;6.00;;;;;;;22.87;86.11;97413.90;110104;1244;69798;-66
2023/07/07 07:48:35;;;;;;;7.50;6.20;;;;;;;23.47;83.70;97408.98;110131;1244;69114;-65
2023/07/07 07:51:04;;;;;;;;;;;;;;;23.89;77.87;97411.61;110124;1244;58867;-66
2023/07/07 07:53:53;;;;;;;7.10;6.00;;;;;;;24.06;75.27;97412.77;110142;1244;58886;-66
2023/07/07 07:56:22;;;;;;;7.30;6.00;;;;;;;24.59;72.69;97413.38;110149;1244;70600;-66
2023/07/07 07:58:51;;;;;;;8.10;5.80;;;;;;;24.96;71.11;97413.49;110167;1244;69807;-66
2023/07/07 08:01:20;;;;;;;7.00;5.30;;;;;;;25.32;68.78;97410.52;110151;1244;69293;-66
2023/07/07 08:03:49;;;;;;;6.00;5.30;;;;;;;25.99;71.46;97411.83;110116;1242;58938;-65
2023/07/07 08:06:18;;;;;;;6.20;5.20;;;;;;;25.93;69.88;97413.25;110074;1244;58879;-66
2023/07/07 08:08:48;;;;;;;7.20;5.80;;;;;;;25.15;68.75;97413.66;110119;1244;70737;-66
2023/07/07 08:11:20;;;;;;;6.90;5.50;;;;;;;25.01;69.86;97415.14;110152;1244;68248;-65
2023/07/07 08:13:49;;;;;;;6.30;5.50;;;;;;;24.86;70.50;97412.68;110116;1244;68550;-64
2023/07/07 08:16:18;;;;;;;6.40;4.70;;;;;;;24.97;72.21;97415.58;110126;1244;58940;-65
2023/07/07 08:18:47;;;;;;;6.30;5.00;;;;;;;25.21;70.24;97413.14;110109;1244;59311;-65
2023/07/07 08:21:16;;;;;;;7.20;5.10;;;;;;;25.50;70.23;97406.90;110109;1245;70636;-65
2023/07/07 08:23:45;;;;;;;6.50;5.60;;;;;;;25.48;67.25;97407.11;110116;1244;69819;-65
2023/07/07 08:26:13;;;;;;;6.40;5.40;;;;;;;25.69;69.50;97405.38;110091;1244;69729;-65
2023/07/07 08:28:46;;;;;;;6.00;5.30;;;;;;;26.10;67.96;97407.34;110040;1244;58891;-66
2023/07/07 08:31:18;;;;;;;5.60;4.70;;;;;;;26.61;67.77;97403.35;110138;1244;58975;-65
2023/07/07 08:33:48;;;;;;;5.10;4.20;;;;;;;27.34;65.40;97399.77;110079;1244;70583;-66
2023/07/07 08:36:27;;;;;;;6.00;5.10;;;;;;;27.72;62.51;97400.77;110107;1244;69950;-65
2023/07/07 08:39:09;;;;;;;6.80;6.10;;;;;;;27.87;61.27;97397.14;110104;1244;69725;-65
2023/07/07 08:41:49;;;;;;;6.70;5.40;;;;;;;27.98;61.81;97398.55;110107;1244;58872;-66
2023/07/07 08:44:24;;;;;;;6.50;5.40;;;;;;;28.51;59.06;97397.61;110116;1244;58957;-65
2023/07/07 08:47:16;;;;;;;4.90;4.40;;;;;;;28.81;58.28;97395.02;110124;1244;70547;-65
2023/07/07 08:50:01;;;;;;;5.10;4.60;;;;;;;29.29;54.74;97392.64;110116;1243;69223;-65
2023/07/07 08:52:54;;;;;;;5.20;4.40;;;;;;;29.79;55.81;97389.98;110106;1244;69983;-65
2023/07/07 08:55:51;;;;;;;5.70;5.10;;;;;;;29.86;52.56;97386.98;110070;1244;59246;-67
2023/07/07 08:58:52;;;;;;;4.60;4.10;;;;;;;30.18;52.30;97387.31;110123;1244;58855;-65
2023/07/07 09:01:40;;;;;;;5.60;5.00;;;;;;;30.33;52.33;97389.04;110084;1244;71485;-65
2023/07/07 09:04:21;;;;;;;5.30;3.90;;;;;;;30.96;52.28;97386.72;110104;1244;69878;-64
2023/07/07 09:07:26;;;;;;;6.10;5.10;;;;;;;31.16;50.61;97389.23;110129;1244;70213;-64
2023/07/07 09:10:48;;;;;;;5.20;4.60;;;;;;;30.01;49.40;97385.58;110111;1244;58896;-64
2023/07/07 09:13:35;;;;;;;4.50;4.10;;;;;;;30.94;50.23;97387.05;109377;1251;58939;-65
2023/07/07 09:16:25;;;;;;;5.00;4.50;;;;;;;30.64;47.26;97386.19;110117;1245;70541;-64
2023/07/07 09:19:06;;;;;;;5.80;5.10;;;;;;;30.49;50.12;97388.24;110106;1243;69672;-65
2023/07/07 09:21:43;;;;;;;5.00;4.10;;;;;;;30.65;51.44;97388.48;110089;1244;69859;-65
2023/07/07 09:24:28;;;;;;;5.60;5.00;;;;;;;31.03;50.27;97383.88;110046;1243;58902;-65
2023/07/07 09:27:04;;;;;;;6.80;4.90;;;;;;;31.01;48.51;97382.33;110090;1243;58910;-65
2023/07/07 09:29:33;;;;;;;4.80;4.30;;;;;;;30.81;48.61;97385.74;110142;1244;71168;-66
2023/07/07 09:32:02;;;;;;;6.10;5.30;;;;;;;30.69;48.21;97381.94;110117;1244;69739;-65
2023/07/07 09:34:33;;;;;;;5.20;4.70;;;;;;;29.09;51.04;97377.21;110052;1244;69689;-65
2023/07/07 09:37:15;;;;;;;5.70;4.40;;;;;;;28.92;53.09;97374.50;110091;1244;59195;-64
2023/07/07 09:39:59;;;;;;;6.60;5.80;;;;;;;28.80;52.55;97368.39;110150;1244;58910;-64
2023/07/07 09:42:42;;;;;;;6.80;6.10;;;;;;;28.77;52.00;97368.04;110125;1243;71144;-66
2023/07/07 09:45:33;;;;;;;7.00;5.70;;;;;;;28.60;52.53;97367.82;110060;1245;69467;-67
2023/07/07 09:48:13;;;;;;;5.00;4.50;;;;;;;28.38;55.19;97364.09;110079;1244;68425;-65
2023/07/07 09:51:01;;;;;;;7.20;6.50;;;;;;;28.49;53.74;97364.75;110050;1242;58890;-64
2023/07/07 09:53:36;;;;;;;6.00;5.40;;;;;;;28.20;52.91;97360.35;109837;1245;58925;-65
2023/07/07 09:56:21;;;;;;;5.60;4.80;;;;;;;28.65;54.31;97355.16;110107;1244;71028;-64
2023/07/07 09:59:02;;;;;;;5.70;5.10;;;;;;;29.40;53.62;97351.34;110089;1244;69857;-64
2023/07/07 10:01:36;;;;;;;5.20;4.70;;;;;;;29.96;52.70;97353.51;110082;1242;69886;-65
2023/07/07 10:04:15;;;;;;;5.90;5.20;;;;;;;30.24;49.63;97355.85;110053;1244;58881;-65
2023/07/07 10:06:55;;;;;;;6.30;5.70;;;;;;;30.48;48.49;97352.51;110119;1244;58897;-65
2023/07/07 10:09:26;;;;;;;6.40;5.40;;;;;;;30.47;48.45;97346.29;110114;1244;71027;-65
2023/07/07 10:11:56;;;;;;;5.50;4.50;;;;;;;30.08;49.48;97339.38;110037;1244;68736;-64
2023/07/07 10:14:30;;;;;;;7.10;5.30;;;;;;;30.14;49.92;97329.66;110082;1245;69282;-65
2023/07/07 10:17:08;;;;;;;5.20;4.10;;;;;;;30.27;51.78;97331.29;110106;1244;58985;-64
2023/07/07 10:19:41;;;;;;;5.00;4.50;;;;;;;30.27;52.02;97324.43;110062;1244;58903;-64
2023/07/07 10:22:14;;;;;;;6.00;5.00;;;;;;;30.53;51.64;97322.29;110116;1242;71341;-66
2023/07/07 10:24:44;;;;;;;5.10;4.10;;;;;;;30.77;50.33;97315.08;110125;1244;69550;-64
2023/07/07 10:27:14;;;;;;;;;;;;;;;30.99;49.12;97309.42;110105;1244;69819;-65
2023/07/07 10:29:45;;;;;;;8.00;5.40;;;;;;;30.88;48.58;97305.30;110128;1244;58893;-64
2023/07/07 10:32:21;;;;;;;5.70;4.90;;;;;;;30.57;49.01;97299.65;110063;1244;58830;-66
2023/07/07 10:34:57;;;;;;;5.80;4.30;;;;;;;30.44;48.18;97294.86;110069;1244;71182;-66
2023/07/07 10:37:32;;;;;;;5.40;4.50;;;;;;;30.58;50.94;97294.41;110127;1244;69580;-70
2023/07/07 10:40:03;;;;;;;4.30;3.90;;;;;;;30.80;49.49;97288.92;110084;1244;69909;-66
2023/07/07 10:42:32;;;;;;;7.60;4.80;;;;;;;30.79;49.72;97288.67;110152;1244;58889;-65
2023/07/07 10:45:03;;;;;;;5.90;4.60;;;;;;;30.80;49.72;97285.30;110093;1244;58943;-66
2023/07/07 10:47:36;;;;;;;5.40;4.40;;;;;;;30.83;51.08;97281.63;110130;1244;70404;-67
2023/07/07 10:50:15;;;;;;;5.30;4.20;;;;;;;30.73;48.35;97281.08;110110;1244;68428;-67
2023/07/07 10:53:27;;;;;;;5.30;4.20;;;;;;;30.69;49.27;97284.48;109852;1246;69203;-65
2023/07/07 10:56:13;;;;;;;4.90;3.90;;;;;;;30.69;48.46;97282.99;109995;1244;58868;-66
2023/07/07 10:59:28;;;;;;;7.00;4.40;;;;;;;30.86;48.18;97282.82;110093;1243;58952;-65
2023/07/07 11:02:25;;;;;;;5.20;4.30;;;;;;;30.99;45.88;97279.48;110115;1244;69815;-65
2023/07/07 11:05:17;;;;;;;5.80;5.00;;;;;;;30.65;46.70;97278.02;110107;1244;69858;-67
2023/07/07 11:07:57;;;;;;;6.80;4.70;;;;;;;29.90;48.41;97277.30;110130;1244;68806;-66
2023/07/07 11:10:29;;;;;;;5.90;4.80;;;;;;;29.39;49.97;97274.27;110119;1245;58919;-66
2023/07/07 11:12:59;;;;;;;4.70;3.90;;;;;;;29.89;51.59;97269.51;110102;1243;58932;-67
2023/07/07 11:15:39;;;;;;;6.80;5.00;;;;;;;30.56;49.90;97264.36;110160;1244;70015;-66
2023/07/07 11:18:57;;;;;;;4.80;4.30;;;;;;;30.75;47.51;97264.33;110094;1244;69123;-66
2023/07/07 11:22:08;;;;;;;5.90;5.30;;;;;;;30.95;46.90;97257.66;109955;1245;69104;-64
2023/07/07 11:25:18;;;;;;;6.20;5.30;;;;;;;30.85;47.07;97257.92;110155;1244;58869;-67
2023/07/07 11:37:26;;;;;;;5.90;4.30;;;;;;;30.89;47.93;97259.51;110127;1241;68500;-67
2023/07/07 11:40:23;;;;;;;5.20;4.70;;;;;;;30.07;48.86;97270.96;110153;1245;69262;-67
2023/07/07 11:43:10;;;;;;;5.70;4.90;;;;;;;29.85;50.28;97276.17;110180;1244;58878;-66
2023/07/07 11:46:10;;;;;;;4.70;4.20;;;;;;;29.65;51.34;97279.52;110195;1241;58867;-66
2023/07/07 11:49:07;;;;;;;6.30;4.20;;;;;;;29.24;52.52;97272.14;110122;1241;71128;-65
2023/07/07 11:51:55;;;;;;;6.00;4.50;;;;;;;29.04;52.48;97264.55;110083;1241;68614;-65
2023/07/07 11:54:44;;;;;;;5.40;4.80;;;;;;;28.53;54.47;97260.05;110194;1243;69112;-66
2023/07/07 11:57:45;;;;;;;4.60;4.00;;;;;;;28.62;55.50;97258.46;110202;1242;58864;-65
2023/07/07 12:00:42;;;;;;;4.80;4.00;;;;;;;28.56;54.25;97252.39;109930;1245;58814;-64
2023/07/07 12:03:33;;;;;;;4.80;3.60;;;;;;;28.49;55.04;97249.20;109930;1245;70882;-66
2023/07/07 12:06:15;;;;;;;6.20;4.80;;;;;;;28.43;55.63;97247.95;110192;1243;69193;-65